Blue Ridge Observed Data For Previous 48 Hours

Caption
Day and Hour Reservoir Elevation (behind dam)* Tailwater Elevation (below dam)* Average Hourly Discharge*
9/20/2018 2 AM EDT 1,676.92 1,540.78 145
9/20/2018 3 AM EDT 1,676.96 1,540.79 145
9/20/2018 4 AM EDT 1,676.93 1,540.78 145
9/20/2018 5 AM EDT 1,676.93 1,540.78 145
9/20/2018 6 AM EDT 1,676.97 1,540.79 145
9/20/2018 7 AM EDT 1,676.98 1,540.79 145
9/20/2018 8 AM EDT 1,676.98 1,540.79 145
9/20/2018 9 AM EDT 1,676.91 1,540.79 145
9/20/2018 10 AM EDT 1,676.98 1,540.79 145
9/20/2018 11 AM EDT 1,676.91 1,540.79 145
9/20/2018 12 PM EDT 1,676.97 1,540.79 145
9/20/2018 1 PM EDT 1,676.97 1,540.78 145
9/20/2018 2 PM EDT 1,676.96 1,540.75 146
9/20/2018 3 PM EDT 1,676.86 1,543.53 1,639
9/20/2018 4 PM EDT 1,676.82 1,543.64 1,707
9/20/2018 5 PM EDT 1,676.85 1,543.63 1,705
9/20/2018 6 PM EDT 1,676.78 1,543.62 1,702
9/20/2018 7 PM EDT 1,676.77 1,543.61 1,696
9/20/2018 8 PM EDT 1,676.77 1,540.91 253
9/20/2018 9 PM EDT 1,676.75 1,540.79 145
9/20/2018 10 PM EDT 1,676.78 1,540.78 145
9/20/2018 11 PM EDT 1,676.81 1,540.78 145
9/21/2018 12 AM EDT 1,676.78 1,540.78 145
9/21/2018 1 AM EDT 1,676.80 1,540.78 145
9/21/2018 2 AM EDT 1,676.81 1,540.79 145
9/21/2018 3 AM EDT 1,676.82 1,540.78 145
9/21/2018 4 AM EDT 1,676.76 1,540.78 145
9/21/2018 5 AM EDT 1,676.76 1,540.78 145
9/21/2018 6 AM EDT 1,676.77 1,540.79 145
9/21/2018 7 AM EDT 1,676.79 1,540.79 145
9/21/2018 8 AM EDT 1,676.81 1,540.79 145
9/21/2018 9 AM EDT 1,676.82 1,540.79 145
9/21/2018 10 AM EDT 1,676.76 1,540.79 145
9/21/2018 11 AM EDT 1,676.75 1,540.79 145
9/21/2018 12 PM EDT 1,676.75 1,540.78 145
9/21/2018 1 PM EDT 1,676.75 1,540.78 145
9/21/2018 2 PM EDT 1,676.75 1,540.74 150
9/21/2018 3 PM EDT 1,676.72 1,543.52 1,624
9/21/2018 4 PM EDT 1,676.68 1,543.62 1,703
9/21/2018 5 PM EDT 1,676.63 1,543.62 1,699
9/21/2018 6 PM EDT 1,676.58 1,543.62 1,695
9/21/2018 7 PM EDT 1,676.57 1,543.61 1,693
9/21/2018 8 PM EDT 1,676.56 1,540.91 252
9/21/2018 9 PM EDT 1,676.62 1,540.78 145
9/21/2018 10 PM EDT 1,676.60 1,540.78 145
9/21/2018 11 PM EDT 1,676.60 1,540.78 145
9/22/2018 12 AM EDT 1,676.60 1,540.78 145
9/22/2018 1 AM EDT 1,676.62 1,540.78 145
9/22/2018 2 AM EDT 1,676.65 1,540.78 145
9/22/2018 3 AM EDT 1,676.61 1,540.78 145
9/22/2018 4 AM EDT 1,676.67 1,540.78 145
9/22/2018 5 AM EDT 1,676.67 1,540.79 145
9/22/2018 6 AM EDT 1,676.66 1,540.78 145
9/22/2018 7 AM EDT 1,676.70 1,540.78 145

Elevations are in feet above sea level. Discharges are in cubic feet per second and are reported at the end of the hour.